sensor_id;sensor_type;location;lat;lon;timestamp;P1;durP1;ratioP1;P2;durP2;ratioP2
31037;SDS011;17702;47.590;7.666;2024-01-15T00:00:37;54.17;;;21.85;;
31037;SDS011;17702;47.590;7.666;2024-01-15T00:03:03;50.25;;;21.23;;
31037;SDS011;17702;47.590;7.666;2024-01-15T00:05:29;57.58;;;22.75;;
31037;SDS011;17702;47.590;7.666;2024-01-15T00:07:55;57.15;;;24.13;;
31037;SDS011;17702;47.590;7.666;2024-01-15T00:10:20;50.60;;;22.67;;
31037;SDS011;17702;47.590;7.666;2024-01-15T00:12:46;51.03;;;21.35;;
31037;SDS011;17702;47.590;7.666;2024-01-15T00:15:12;56.40;;;23.35;;
31037;SDS011;17702;47.590;7.666;2024-01-15T00:17:37;62.75;;;25.15;;
31037;SDS011;17702;47.590;7.666;2024-01-15T00:20:03;67.35;;;26.25;;
31037;SDS011;17702;47.590;7.666;2024-01-15T00:22:29;75.47;;;28.65;;
31037;SDS011;17702;47.590;7.666;2024-01-15T00:24:55;81.97;;;30.55;;
31037;SDS011;17702;47.590;7.666;2024-01-15T00:27:21;76.20;;;29.00;;
31037;SDS011;17702;47.590;7.666;2024-01-15T00:29:47;80.47;;;29.10;;
31037;SDS011;17702;47.590;7.666;2024-01-15T00:32:13;80.68;;;30.83;;
31037;SDS011;17702;47.590;7.666;2024-01-15T00:34:38;82.97;;;31.73;;
31037;SDS011;17702;47.590;7.666;2024-01-15T00:37:04;92.72;;;33.95;;
31037;SDS011;17702;47.590;7.666;2024-01-15T00:39:32;82.28;;;31.38;;
31037;SDS011;17702;47.590;7.666;2024-01-15T00:41:57;86.78;;;31.17;;
31037;SDS011;17702;47.590;7.666;2024-01-15T00:44:23;86.38;;;31.70;;
31037;SDS011;17702;47.590;7.666;2024-01-15T00:46:48;90.32;;;32.05;;
31037;SDS011;17702;47.590;7.666;2024-01-15T00:49:14;87.93;;;32.53;;
31037;SDS011;17702;47.590;7.666;2024-01-15T00:51:40;81.82;;;30.10;;
31037;SDS011;17702;47.590;7.666;2024-01-15T00:54:06;83.03;;;31.02;;
31037;SDS011;17702;47.590;7.666;2024-01-15T00:56:32;84.80;;;32.08;;
31037;SDS011;17702;47.590;7.666;2024-01-15T00:58:58;88.18;;;31.85;;
31037;SDS011;17702;47.590;7.666;2024-01-15T01:01:23;86.10;;;32.53;;
31037;SDS011;17702;47.590;7.666;2024-01-15T01:03:49;87.30;;;32.80;;
31037;SDS011;17702;47.590;7.666;2024-01-15T01:06:14;85.80;;;33.47;;
31037;SDS011;17702;47.590;7.666;2024-01-15T01:08:40;81.05;;;31.27;;
31037;SDS011;17702;47.590;7.666;2024-01-15T01:11:06;79.93;;;30.73;;
31037;SDS011;17702;47.590;7.666;2024-01-15T01:13:32;80.85;;;31.33;;
31037;SDS011;17702;47.590;7.666;2024-01-15T01:15:58;77.93;;;29.77;;
31037;SDS011;17702;47.590;7.666;2024-01-15T01:18:23;82.95;;;30.20;;
31037;SDS011;17702;47.590;7.666;2024-01-15T01:20:49;82.55;;;30.27;;
31037;SDS011;17702;47.590;7.666;2024-01-15T01:23:14;78.72;;;29.23;;
31037;SDS011;17702;47.590;7.666;2024-01-15T01:25:40;82.78;;;30.75;;
31037;SDS011;17702;47.590;7.666;2024-01-15T01:28:06;84.43;;;31.25;;
31037;SDS011;17702;47.590;7.666;2024-01-15T01:30:31;83.80;;;30.50;;
31037;SDS011;17702;47.590;7.666;2024-01-15T01:32:57;83.43;;;30.67;;
31037;SDS011;17702;47.590;7.666;2024-01-15T01:35:22;79.70;;;30.50;;
31037;SDS011;17702;47.590;7.666;2024-01-15T01:37:48;85.22;;;30.63;;
31037;SDS011;17702;47.590;7.666;2024-01-15T01:40:14;81.28;;;30.63;;
31037;SDS011;17702;47.590;7.666;2024-01-15T01:42:39;81.53;;;30.65;;
31037;SDS011;17702;47.590;7.666;2024-01-15T01:45:05;81.07;;;29.50;;
31037;SDS011;17702;47.590;7.666;2024-01-15T01:47:31;83.10;;;30.20;;
31037;SDS011;17702;47.590;7.666;2024-01-15T01:49:57;90.13;;;31.80;;
31037;SDS011;17702;47.590;7.666;2024-01-15T01:52:23;86.88;;;31.48;;
31037;SDS011;17702;47.590;7.666;2024-01-15T01:54:49;83.57;;;31.80;;
31037;SDS011;17702;47.590;7.666;2024-01-15T01:57:15;89.38;;;32.13;;
31037;SDS011;17702;47.590;7.666;2024-01-15T01:59:42;83.40;;;29.85;;
31037;SDS011;17702;47.590;7.666;2024-01-15T02:02:08;82.80;;;29.35;;
31037;SDS011;17702;47.590;7.666;2024-01-15T02:04:34;79.95;;;29.02;;
31037;SDS011;17702;47.590;7.666;2024-01-15T02:07:01;76.65;;;28.98;;
31037;SDS011;17702;47.590;7.666;2024-01-15T02:09:27;75.93;;;28.42;;
31037;SDS011;17702;47.590;7.666;2024-01-15T02:11:53;76.30;;;28.08;;
31037;SDS011;17702;47.590;7.666;2024-01-15T02:14:19;73.80;;;26.30;;
31037;SDS011;17702;47.590;7.666;2024-01-15T02:16:44;76.70;;;29.02;;
31037;SDS011;17702;47.590;7.666;2024-01-15T02:19:16;69.85;;;26.73;;
31037;SDS011;17702;47.590;7.666;2024-01-15T02:21:43;64.80;;;23.48;;
31037;SDS011;17702;47.590;7.666;2024-01-15T02:24:08;76.32;;;27.58;;
31037;SDS011;17702;47.590;7.666;2024-01-15T02:26:34;71.93;;;26.48;;
31037;SDS011;17702;47.590;7.666;2024-01-15T02:29:01;80.25;;;28.35;;
31037;SDS011;17702;47.590;7.666;2024-01-15T02:31:27;80.35;;;28.30;;
31037;SDS011;17702;47.590;7.666;2024-01-15T02:33:52;78.15;;;27.73;;
31037;SDS011;17702;47.590;7.666;2024-01-15T02:36:18;86.15;;;29.05;;
31037;SDS011;17702;47.590;7.666;2024-01-15T02:38:43;83.20;;;27.92;;
31037;SDS011;17702;47.590;7.666;2024-01-15T02:41:09;73.57;;;26.33;;
31037;SDS011;17702;47.590;7.666;2024-01-15T02:43:34;76.47;;;27.77;;
31037;SDS011;17702;47.590;7.666;2024-01-15T02:46:00;75.45;;;29.98;;
31037;SDS011;17702;47.590;7.666;2024-01-15T02:48:25;71.65;;;26.60;;
31037;SDS011;17702;47.590;7.666;2024-01-15T02:50:51;80.50;;;28.33;;
31037;SDS011;17702;47.590;7.666;2024-01-15T02:53:17;83.20;;;27.05;;
31037;SDS011;17702;47.590;7.666;2024-01-15T02:55:42;76.40;;;26.80;;
31037;SDS011;17702;47.590;7.666;2024-01-15T02:58:08;79.97;;;29.10;;
31037;SDS011;17702;47.590;7.666;2024-01-15T03:00:33;78.45;;;27.75;;
31037;SDS011;17702;47.590;7.666;2024-01-15T03:02:59;87.63;;;30.85;;
31037;SDS011;17702;47.590;7.666;2024-01-15T03:05:24;83.35;;;30.15;;
31037;SDS011;17702;47.590;7.666;2024-01-15T03:07:50;85.88;;;32.75;;
31037;SDS011;17702;47.590;7.666;2024-01-15T03:10:16;93.80;;;30.73;;
31037;SDS011;17702;47.590;7.666;2024-01-15T03:12:41;87.10;;;31.65;;
31037;SDS011;17702;47.590;7.666;2024-01-15T03:15:07;79.93;;;29.02;;
31037;SDS011;17702;47.590;7.666;2024-01-15T03:17:33;92.13;;;30.98;;
31037;SDS011;17702;47.590;7.666;2024-01-15T03:19:58;87.40;;;31.10;;
31037;SDS011;17702;47.590;7.666;2024-01-15T03:22:24;87.10;;;31.33;;
31037;SDS011;17702;47.590;7.666;2024-01-15T03:24:49;86.95;;;31.83;;
31037;SDS011;17702;47.590;7.666;2024-01-15T03:27:15;80.28;;;31.13;;
31037;SDS011;17702;47.590;7.666;2024-01-15T03:29:41;89.63;;;32.25;;
31037;SDS011;17702;47.590;7.666;2024-01-15T03:32:06;87.30;;;32.10;;
31037;SDS011;17702;47.590;7.666;2024-01-15T03:34:32;90.18;;;31.30;;
31037;SDS011;17702;47.590;7.666;2024-01-15T03:36:58;83.00;;;28.88;;
31037;SDS011;17702;47.590;7.666;2024-01-15T03:39:24;81.25;;;29.42;;
31037;SDS011;17702;47.590;7.666;2024-01-15T03:41:49;87.43;;;30.33;;
31037;SDS011;17702;47.590;7.666;2024-01-15T03:44:15;80.22;;;29.20;;
31037;SDS011;17702;47.590;7.666;2024-01-15T03:46:41;88.80;;;30.00;;
31037;SDS011;17702;47.590;7.666;2024-01-15T03:49:06;83.40;;;30.27;;
31037;SDS011;17702;47.590;7.666;2024-01-15T03:51:32;82.00;;;30.05;;
31037;SDS011;17702;47.590;7.666;2024-01-15T03:53:57;85.38;;;30.25;;
31037;SDS011;17702;47.590;7.666;2024-01-15T03:56:23;79.13;;;29.98;;
31037;SDS011;17702;47.590;7.666;2024-01-15T03:58:48;79.32;;;31.25;;
31037;SDS011;17702;47.590;7.666;2024-01-15T04:01:14;84.65;;;31.08;;
31037;SDS011;17702;47.590;7.666;2024-01-15T04:03:40;87.80;;;30.08;;
31037;SDS011;17702;47.590;7.666;2024-01-15T04:06:05;78.80;;;30.15;;
31037;SDS011;17702;47.590;7.666;2024-01-15T04:08:31;87.68;;;31.92;;
31037;SDS011;17702;47.590;7.666;2024-01-15T04:10:56;82.57;;;30.90;;
31037;SDS011;17702;47.590;7.666;2024-01-15T04:13:22;81.95;;;29.63;;
31037;SDS011;17702;47.590;7.666;2024-01-15T04:15:48;78.88;;;30.05;;
31037;SDS011;17702;47.590;7.666;2024-01-15T04:18:15;85.90;;;30.92;;
31037;SDS011;17702;47.590;7.666;2024-01-15T04:20:41;77.43;;;27.58;;
31037;SDS011;17702;47.590;7.666;2024-01-15T04:23:07;79.50;;;29.88;;
31037;SDS011;17702;47.590;7.666;2024-01-15T04:25:32;80.40;;;31.05;;
31037;SDS011;17702;47.590;7.666;2024-01-15T04:27:58;79.40;;;29.02;;
31037;SDS011;17702;47.590;7.666;2024-01-15T04:30:24;77.93;;;28.35;;
31037;SDS011;17702;47.590;7.666;2024-01-15T04:32:49;74.28;;;28.40;;
31037;SDS011;17702;47.590;7.666;2024-01-15T04:35:15;78.85;;;29.60;;
31037;SDS011;17702;47.590;7.666;2024-01-15T04:37:40;77.13;;;27.67;;
31037;SDS011;17702;47.590;7.666;2024-01-15T04:40:06;78.30;;;29.05;;
31037;SDS011;17702;47.590;7.666;2024-01-15T04:42:32;80.28;;;29.67;;
31037;SDS011;17702;47.590;7.666;2024-01-15T04:44:58;76.57;;;30.33;;
31037;SDS011;17702;47.590;7.666;2024-01-15T04:47:24;77.55;;;28.23;;
31037;SDS011;17702;47.590;7.666;2024-01-15T04:49:49;76.22;;;29.75;;
31037;SDS011;17702;47.590;7.666;2024-01-15T04:52:16;79.88;;;28.13;;
31037;SDS011;17702;47.590;7.666;2024-01-15T04:54:41;80.30;;;28.27;;
31037;SDS011;17702;47.590;7.666;2024-01-15T04:57:07;73.13;;;27.17;;
31037;SDS011;17702;47.590;7.666;2024-01-15T04:59:32;75.32;;;28.88;;
31037;SDS011;17702;47.590;7.666;2024-01-15T05:01:58;72.78;;;28.02;;
31037;SDS011;17702;47.590;7.666;2024-01-15T05:04:23;74.15;;;28.35;;
31037;SDS011;17702;47.590;7.666;2024-01-15T05:06:52;75.47;;;29.10;;
31037;SDS011;17702;47.590;7.666;2024-01-15T05:09:18;77.65;;;29.33;;
31037;SDS011;17702;47.590;7.666;2024-01-15T05:11:44;72.18;;;27.35;;
31037;SDS011;17702;47.590;7.666;2024-01-15T05:14:09;79.85;;;30.40;;
31037;SDS011;17702;47.590;7.666;2024-01-15T05:16:37;78.07;;;29.30;;
31037;SDS011;17702;47.590;7.666;2024-01-15T05:19:03;79.97;;;28.33;;
31037;SDS011;17702;47.590;7.666;2024-01-15T05:21:29;69.25;;;27.42;;
31037;SDS011;17702;47.590;7.666;2024-01-15T05:23:54;69.63;;;27.73;;
31037;SDS011;17702;47.590;7.666;2024-01-15T05:26:20;76.05;;;27.52;;
31037;SDS011;17702;47.590;7.666;2024-01-15T05:28:46;72.68;;;27.67;;
31037;SDS011;17702;47.590;7.666;2024-01-15T05:31:11;72.72;;;28.00;;
31037;SDS011;17702;47.590;7.666;2024-01-15T05:33:37;70.40;;;25.27;;
31037;SDS011;17702;47.590;7.666;2024-01-15T05:36:03;71.72;;;26.75;;
31037;SDS011;17702;47.590;7.666;2024-01-15T05:38:28;71.72;;;26.58;;
31037;SDS011;17702;47.590;7.666;2024-01-15T05:40:54;72.20;;;25.90;;
31037;SDS011;17702;47.590;7.666;2024-01-15T05:43:19;65.13;;;25.08;;
31037;SDS011;17702;47.590;7.666;2024-01-15T05:45:45;66.53;;;25.48;;
31037;SDS011;17702;47.590;7.666;2024-01-15T05:48:11;59.85;;;23.02;;
31037;SDS011;17702;47.590;7.666;2024-01-15T05:50:37;61.80;;;24.58;;
31037;SDS011;17702;47.590;7.666;2024-01-15T05:53:03;62.63;;;24.30;;
31037;SDS011;17702;47.590;7.666;2024-01-15T05:55:29;63.92;;;24.45;;
31037;SDS011;17702;47.590;7.666;2024-01-15T05:57:54;66.10;;;23.95;;
31037;SDS011;17702;47.590;7.666;2024-01-15T06:00:20;65.45;;;24.65;;
31037;SDS011;17702;47.590;7.666;2024-01-15T06:02:45;60.88;;;24.13;;
31037;SDS011;17702;47.590;7.666;2024-01-15T06:05:11;61.38;;;22.25;;
31037;SDS011;17702;47.590;7.666;2024-01-15T06:07:36;51.95;;;21.00;;
31037;SDS011;17702;47.590;7.666;2024-01-15T06:10:02;61.28;;;21.80;;
31037;SDS011;17702;47.590;7.666;2024-01-15T06:12:29;58.08;;;22.33;;
31037;SDS011;17702;47.590;7.666;2024-01-15T06:14:56;58.08;;;21.70;;
31037;SDS011;17702;47.590;7.666;2024-01-15T06:17:21;52.17;;;20.52;;
31037;SDS011;17702;47.590;7.666;2024-01-15T06:19:47;56.78;;;20.60;;
31037;SDS011;17702;47.590;7.666;2024-01-15T06:22:12;53.75;;;20.30;;
31037;SDS011;17702;47.590;7.666;2024-01-15T06:24:38;49.22;;;19.65;;
31037;SDS011;17702;47.590;7.666;2024-01-15T06:27:04;52.10;;;20.25;;
31037;SDS011;17702;47.590;7.666;2024-01-15T06:29:29;48.53;;;18.45;;
31037;SDS011;17702;47.590;7.666;2024-01-15T06:31:55;43.40;;;16.98;;
31037;SDS011;17702;47.590;7.666;2024-01-15T06:34:20;40.97;;;16.13;;
31037;SDS011;17702;47.590;7.666;2024-01-15T06:36:46;39.10;;;15.77;;
31037;SDS011;17702;47.590;7.666;2024-01-15T06:39:12;35.33;;;15.00;;
31037;SDS011;17702;47.590;7.666;2024-01-15T06:41:37;36.60;;;14.45;;
31037;SDS011;17702;47.590;7.666;2024-01-15T06:44:09;33.03;;;13.77;;
31037;SDS011;17702;47.590;7.666;2024-01-15T06:46:36;34.50;;;13.45;;
31037;SDS011;17702;47.590;7.666;2024-01-15T06:49:01;31.40;;;13.48;;
31037;SDS011;17702;47.590;7.666;2024-01-15T06:51:27;32.78;;;13.73;;
31037;SDS011;17702;47.590;7.666;2024-01-15T06:53:54;35.25;;;14.27;;
31037;SDS011;17702;47.590;7.666;2024-01-15T06:56:19;33.17;;;13.68;;
31037;SDS011;17702;47.590;7.666;2024-01-15T06:58:45;34.38;;;12.93;;
31037;SDS011;17702;47.590;7.666;2024-01-15T07:01:10;32.58;;;12.40;;
31037;SDS011;17702;47.590;7.666;2024-01-15T07:03:36;33.20;;;12.77;;
31037;SDS011;17702;47.590;7.666;2024-01-15T07:06:03;32.72;;;14.25;;
31037;SDS011;17702;47.590;7.666;2024-01-15T07:08:28;30.02;;;12.57;;
31037;SDS011;17702;47.590;7.666;2024-01-15T07:10:54;35.45;;;13.55;;
31037;SDS011;17702;47.590;7.666;2024-01-15T07:13:20;30.50;;;12.57;;
31037;SDS011;17702;47.590;7.666;2024-01-15T07:15:45;30.55;;;12.93;;
31037;SDS011;17702;47.590;7.666;2024-01-15T07:18:11;36.80;;;14.50;;
31037;SDS011;17702;47.590;7.666;2024-01-15T07:20:36;30.63;;;12.80;;
31037;SDS011;17702;47.590;7.666;2024-01-15T07:23:02;31.58;;;12.80;;
31037;SDS011;17702;47.590;7.666;2024-01-15T07:25:29;30.67;;;13.52;;
31037;SDS011;17702;47.590;7.666;2024-01-15T07:27:54;34.40;;;14.05;;
31037;SDS011;17702;47.590;7.666;2024-01-15T07:30:20;31.25;;;12.88;;
31037;SDS011;17702;47.590;7.666;2024-01-15T07:32:47;33.15;;;13.48;;
31037;SDS011;17702;47.590;7.666;2024-01-15T07:35:13;36.58;;;14.88;;
31037;SDS011;17702;47.590;7.666;2024-01-15T07:37:41;40.95;;;15.93;;
31037;SDS011;17702;47.590;7.666;2024-01-15T07:40:07;35.72;;;15.88;;
31037;SDS011;17702;47.590;7.666;2024-01-15T07:42:33;31.70;;;14.20;;
31037;SDS011;17702;47.590;7.666;2024-01-15T07:44:59;35.95;;;15.05;;
31037;SDS011;17702;47.590;7.666;2024-01-15T07:47:25;38.85;;;16.08;;
31037;SDS011;17702;47.590;7.666;2024-01-15T07:49:52;36.47;;;15.32;;
31037;SDS011;17702;47.590;7.666;2024-01-15T07:52:18;39.13;;;16.13;;
31037;SDS011;17702;47.590;7.666;2024-01-15T07:54:44;41.95;;;17.55;;
31037;SDS011;17702;47.590;7.666;2024-01-15T07:57:10;41.03;;;16.70;;
31037;SDS011;17702;47.590;7.666;2024-01-15T07:59:35;37.55;;;15.85;;
31037;SDS011;17702;47.590;7.666;2024-01-15T08:02:01;40.08;;;16.50;;
31037;SDS011;17702;47.590;7.666;2024-01-15T08:04:27;39.03;;;16.88;;
31037;SDS011;17702;47.590;7.666;2024-01-15T08:06:52;36.70;;;16.90;;
31037;SDS011;17702;47.590;7.666;2024-01-15T08:09:18;39.50;;;16.15;;
31037;SDS011;17702;47.590;7.666;2024-01-15T08:11:44;44.85;;;17.48;;
31037;SDS011;17702;47.590;7.666;2024-01-15T08:14:10;40.22;;;16.42;;
31037;SDS011;17702;47.590;7.666;2024-01-15T08:16:36;38.88;;;16.58;;
31037;SDS011;17702;47.590;7.666;2024-01-15T08:19:02;35.70;;;14.95;;
31037;SDS011;17702;47.590;7.666;2024-01-15T08:21:27;38.40;;;14.95;;
31037;SDS011;17702;47.590;7.666;2024-01-15T08:23:57;33.85;;;14.10;;
31037;SDS011;17702;47.590;7.666;2024-01-15T08:26:23;36.33;;;15.40;;
31037;SDS011;17702;47.590;7.666;2024-01-15T08:28:49;32.55;;;14.90;;
31037;SDS011;17702;47.590;7.666;2024-01-15T08:31:15;30.52;;;13.32;;
31037;SDS011;17702;47.590;7.666;2024-01-15T08:33:40;36.92;;;14.85;;
31037;SDS011;17702;47.590;7.666;2024-01-15T08:36:06;33.15;;;14.02;;
31037;SDS011;17702;47.590;7.666;2024-01-15T08:38:31;37.85;;;13.98;;
31037;SDS011;17702;47.590;7.666;2024-01-15T08:40:57;30.50;;;13.77;;
31037;SDS011;17702;47.590;7.666;2024-01-15T08:43:25;32.50;;;13.70;;
31037;SDS011;17702;47.590;7.666;2024-01-15T08:45:51;29.58;;;13.40;;
31037;SDS011;17702;47.590;7.666;2024-01-15T08:48:17;33.05;;;14.20;;
31037;SDS011;17702;47.590;7.666;2024-01-15T08:50:43;28.67;;;12.50;;
31037;SDS011;17702;47.590;7.666;2024-01-15T08:53:11;32.92;;;13.85;;
31037;SDS011;17702;47.590;7.666;2024-01-15T08:55:37;28.33;;;13.50;;
31037;SDS011;17702;47.590;7.666;2024-01-15T08:58:02;30.50;;;13.25;;
31037;SDS011;17702;47.590;7.666;2024-01-15T09:00:28;30.50;;;14.63;;
31037;SDS011;17702;47.590;7.666;2024-01-15T09:02:54;33.42;;;14.60;;
31037;SDS011;17702;47.590;7.666;2024-01-15T09:05:21;39.20;;;16.33;;
31037;SDS011;17702;47.590;7.666;2024-01-15T09:07:47;37.92;;;15.23;;
31037;SDS011;17702;47.590;7.666;2024-01-15T09:10:13;38.80;;;15.02;;
31037;SDS011;17702;47.590;7.666;2024-01-15T09:12:39;34.03;;;14.15;;
31037;SDS011;17702;47.590;7.666;2024-01-15T09:15:04;30.40;;;13.07;;
31037;SDS011;17702;47.590;7.666;2024-01-15T09:17:31;38.80;;;16.45;;
31037;SDS011;17702;47.590;7.666;2024-01-15T09:19:57;43.70;;;19.00;;
31037;SDS011;17702;47.590;7.666;2024-01-15T09:22:23;51.70;;;28.13;;
31037;SDS011;17702;47.590;7.666;2024-01-15T09:24:48;46.05;;;23.52;;
31037;SDS011;17702;47.590;7.666;2024-01-15T09:27:14;33.17;;;14.82;;
31037;SDS011;17702;47.590;7.666;2024-01-15T09:29:40;29.85;;;13.13;;
31037;SDS011;17702;47.590;7.666;2024-01-15T09:32:07;34.42;;;14.73;;
31037;SDS011;17702;47.590;7.666;2024-01-15T09:34:36;32.03;;;13.50;;
31037;SDS011;17702;47.590;7.666;2024-01-15T09:37:01;34.22;;;14.60;;
31037;SDS011;17702;47.590;7.666;2024-01-15T09:39:28;32.85;;;15.13;;
31037;SDS011;17702;47.590;7.666;2024-01-15T09:41:54;32.25;;;13.77;;
31037;SDS011;17702;47.590;7.666;2024-01-15T09:44:20;32.78;;;13.32;;
31037;SDS011;17702;47.590;7.666;2024-01-15T09:46:46;28.20;;;13.32;;
31037;SDS011;17702;47.590;7.666;2024-01-15T09:49:15;31.75;;;14.10;;
31037;SDS011;17702;47.590;7.666;2024-01-15T09:51:41;27.85;;;12.65;;
31037;SDS011;17702;47.590;7.666;2024-01-15T09:54:07;26.33;;;12.77;;
31037;SDS011;17702;47.590;7.666;2024-01-15T09:56:34;29.65;;;13.32;;
31037;SDS011;17702;47.590;7.666;2024-01-15T09:59:00;25.35;;;12.63;;
31037;SDS011;17702;47.590;7.666;2024-01-15T10:01:26;27.05;;;12.90;;
31037;SDS011;17702;47.590;7.666;2024-01-15T10:03:52;35.65;;;12.95;;
31037;SDS011;17702;47.590;7.666;2024-01-15T10:06:20;23.95;;;11.50;;
31037;SDS011;17702;47.590;7.666;2024-01-15T10:08:47;27.02;;;12.25;;
31037;SDS011;17702;47.590;7.666;2024-01-15T10:11:16;31.83;;;14.63;;
31037;SDS011;17702;47.590;7.666;2024-01-15T10:13:45;33.80;;;15.52;;
31037;SDS011;17702;47.590;7.666;2024-01-15T10:16:11;44.42;;;21.13;;
31037;SDS011;17702;47.590;7.666;2024-01-15T10:18:37;32.55;;;15.77;;
31037;SDS011;17702;47.590;7.666;2024-01-15T10:21:04;35.60;;;15.07;;
31037;SDS011;17702;47.590;7.666;2024-01-15T10:23:34;31.02;;;15.15;;
31037;SDS011;17702;47.590;7.666;2024-01-15T10:26:01;27.77;;;14.07;;
31037;SDS011;17702;47.590;7.666;2024-01-15T10:28:27;37.50;;;16.05;;
31037;SDS011;17702;47.590;7.666;2024-01-15T10:30:55;42.72;;;15.50;;
31037;SDS011;17702;47.590;7.666;2024-01-15T10:33:22;36.20;;;15.55;;
31037;SDS011;17702;47.590;7.666;2024-01-15T10:35:53;31.98;;;14.48;;
31037;SDS011;17702;47.590;7.666;2024-01-15T10:38:20;35.88;;;16.67;;
31037;SDS011;17702;47.590;7.666;2024-01-15T10:40:47;40.30;;;15.75;;
31037;SDS011;17702;47.590;7.666;2024-01-15T10:43:16;34.80;;;15.23;;
31037;SDS011;17702;47.590;7.666;2024-01-15T10:45:45;38.13;;;15.45;;
31037;SDS011;17702;47.590;7.666;2024-01-15T10:48:12;40.03;;;16.95;;
31037;SDS011;17702;47.590;7.666;2024-01-15T10:50:38;34.75;;;15.57;;
31037;SDS011;17702;47.590;7.666;2024-01-15T10:53:04;41.33;;;17.63;;
31037;SDS011;17702;47.590;7.666;2024-01-15T10:55:31;40.17;;;16.15;;
31037;SDS011;17702;47.590;7.666;2024-01-15T10:57:58;35.25;;;16.65;;
31037;SDS011;17702;47.590;7.666;2024-01-15T11:00:24;40.00;;;16.77;;
31037;SDS011;17702;47.590;7.666;2024-01-15T11:02:51;33.92;;;15.98;;
31037;SDS011;17702;47.590;7.666;2024-01-15T11:05:20;44.30;;;17.35;;
31037;SDS011;17702;47.590;7.666;2024-01-15T11:07:47;41.85;;;17.60;;
31037;SDS011;17702;47.590;7.666;2024-01-15T11:13:08;39.03;;;17.13;;
31037;SDS011;17702;47.590;7.666;2024-01-15T11:15:54;41.95;;;18.20;;
31037;SDS011;17702;47.590;7.666;2024-01-15T11:18:29;46.15;;;18.83;;
31037;SDS011;17702;47.590;7.666;2024-01-15T11:23:44;37.97;;;17.75;;
31037;SDS011;17702;47.590;7.666;2024-01-15T11:34:09;48.75;;;21.13;;
31037;SDS011;17702;47.590;7.666;2024-01-15T11:41:56;47.58;;;21.10;;
31037;SDS011;17702;47.590;7.666;2024-01-15T11:44:23;48.88;;;21.38;;
31037;SDS011;17702;47.590;7.666;2024-01-15T11:46:54;49.83;;;21.70;;
31037;SDS011;17702;47.590;7.666;2024-01-15T11:49:29;52.20;;;22.50;;
31037;SDS011;17702;47.590;7.666;2024-01-15T11:52:21;55.15;;;22.65;;
31037;SDS011;17702;47.590;7.666;2024-01-15T11:55:01;45.10;;;20.55;;
31037;SDS011;17702;47.590;7.666;2024-01-15T12:00:10;50.10;;;20.75;;
31037;SDS011;17702;47.590;7.666;2024-01-15T12:02:37;62.20;;;29.85;;
31037;SDS011;17702;47.590;7.666;2024-01-15T12:05:07;91.68;;;47.20;;
31037;SDS011;17702;47.590;7.666;2024-01-15T12:07:33;54.25;;;24.23;;
31037;SDS011;17702;47.590;7.666;2024-01-15T12:10:00;48.80;;;22.15;;
31037;SDS011;17702;47.590;7.666;2024-01-15T12:12:34;51.78;;;23.00;;
31037;SDS011;17702;47.590;7.666;2024-01-15T12:15:07;54.92;;;24.33;;
31037;SDS011;17702;47.590;7.666;2024-01-15T12:17:34;50.55;;;22.40;;
31037;SDS011;17702;47.590;7.666;2024-01-15T12:20:00;53.65;;;23.60;;
31037;SDS011;17702;47.590;7.666;2024-01-15T12:22:25;53.33;;;22.95;;
31037;SDS011;17702;47.590;7.666;2024-01-15T12:24:53;53.78;;;23.27;;
31037;SDS011;17702;47.590;7.666;2024-01-15T12:27:19;56.85;;;24.58;;
31037;SDS011;17702;47.590;7.666;2024-01-15T12:29:46;57.20;;;23.80;;
31037;SDS011;17702;47.590;7.666;2024-01-15T12:32:12;58.42;;;24.30;;
31037;SDS011;17702;47.590;7.666;2024-01-15T12:34:37;60.70;;;26.40;;
31037;SDS011;17702;47.590;7.666;2024-01-15T12:37:03;57.90;;;25.33;;
31037;SDS011;17702;47.590;7.666;2024-01-15T12:39:29;60.92;;;25.48;;
31037;SDS011;17702;47.590;7.666;2024-01-15T12:41:54;58.13;;;24.38;;
31037;SDS011;17702;47.590;7.666;2024-01-15T12:44:20;55.35;;;25.20;;
31037;SDS011;17702;47.590;7.666;2024-01-15T12:46:46;54.67;;;25.08;;
31037;SDS011;17702;47.590;7.666;2024-01-15T12:49:13;61.17;;;24.67;;
31037;SDS011;17702;47.590;7.666;2024-01-15T12:51:38;53.75;;;24.10;;
31037;SDS011;17702;47.590;7.666;2024-01-15T12:54:04;55.13;;;24.58;;
31037;SDS011;17702;47.590;7.666;2024-01-15T12:56:30;53.13;;;23.15;;
31037;SDS011;17702;47.590;7.666;2024-01-15T12:58:55;55.67;;;24.42;;
31037;SDS011;17702;47.590;7.666;2024-01-15T13:01:21;56.00;;;24.63;;
31037;SDS011;17702;47.590;7.666;2024-01-15T13:03:47;48.83;;;21.85;;
31037;SDS011;17702;47.590;7.666;2024-01-15T13:06:12;48.17;;;22.73;;
31037;SDS011;17702;47.590;7.666;2024-01-15T13:08:38;61.72;;;29.42;;
31037;SDS011;17702;47.590;7.666;2024-01-15T13:11:04;54.35;;;24.90;;
31037;SDS011;17702;47.590;7.666;2024-01-15T13:13:30;48.67;;;21.77;;
31037;SDS011;17702;47.590;7.666;2024-01-15T13:15:57;49.53;;;22.95;;
31037;SDS011;17702;47.590;7.666;2024-01-15T13:18:23;53.92;;;23.60;;
31037;SDS011;17702;47.590;7.666;2024-01-15T13:20:48;50.75;;;21.33;;
31037;SDS011;17702;47.590;7.666;2024-01-15T13:23:14;49.20;;;21.77;;
31037;SDS011;17702;47.590;7.666;2024-01-15T13:25:40;52.85;;;21.65;;
31037;SDS011;17702;47.590;7.666;2024-01-15T13:28:06;43.35;;;19.52;;
31037;SDS011;17702;47.590;7.666;2024-01-15T13:30:31;46.47;;;21.58;;
31037;SDS011;17702;47.590;7.666;2024-01-15T13:32:57;42.35;;;20.00;;
31037;SDS011;17702;47.590;7.666;2024-01-15T13:35:28;46.85;;;21.20;;
31037;SDS011;17702;47.590;7.666;2024-01-15T13:37:54;43.20;;;20.20;;
31037;SDS011;17702;47.590;7.666;2024-01-15T13:40:19;43.72;;;21.42;;
31037;SDS011;17702;47.590;7.666;2024-01-15T13:42:45;45.42;;;21.40;;
31037;SDS011;17702;47.590;7.666;2024-01-15T13:45:12;43.03;;;19.73;;
31037;SDS011;17702;47.590;7.666;2024-01-15T13:47:39;45.05;;;19.77;;
31037;SDS011;17702;47.590;7.666;2024-01-15T13:50:07;48.53;;;23.45;;
31037;SDS011;17702;47.590;7.666;2024-01-15T13:52:33;52.35;;;21.48;;
31037;SDS011;17702;47.590;7.666;2024-01-15T13:54:58;49.83;;;21.25;;
31037;SDS011;17702;47.590;7.666;2024-01-15T13:57:24;44.53;;;20.92;;
31037;SDS011;17702;47.590;7.666;2024-01-15T13:59:49;43.55;;;20.13;;
31037;SDS011;17702;47.590;7.666;2024-01-15T14:02:15;45.58;;;19.77;;
31037;SDS011;17702;47.590;7.666;2024-01-15T14:04:40;43.55;;;19.65;;
31037;SDS011;17702;47.590;7.666;2024-01-15T14:07:06;44.92;;;20.25;;
31037;SDS011;17702;47.590;7.666;2024-01-15T14:09:32;40.60;;;19.83;;
31037;SDS011;17702;47.590;7.666;2024-01-15T14:11:58;44.20;;;18.23;;
31037;SDS011;17702;47.590;7.666;2024-01-15T14:14:24;49.20;;;20.17;;
31037;SDS011;17702;47.590;7.666;2024-01-15T14:16:50;45.42;;;20.25;;
31037;SDS011;17702;47.590;7.666;2024-01-15T14:19:16;87.20;;;47.08;;
31037;SDS011;17702;47.590;7.666;2024-01-15T14:21:41;66.07;;;36.45;;
31037;SDS011;17702;47.590;7.666;2024-01-15T14:24:07;84.47;;;43.17;;
31037;SDS011;17702;47.590;7.666;2024-01-15T14:26:32;46.92;;;20.48;;
31037;SDS011;17702;47.590;7.666;2024-01-15T14:28:58;47.15;;;19.88;;
31037;SDS011;17702;47.590;7.666;2024-01-15T14:31:24;47.05;;;20.27;;
31037;SDS011;17702;47.590;7.666;2024-01-15T14:33:51;47.40;;;20.85;;
31037;SDS011;17702;47.590;7.666;2024-01-15T14:36:17;42.17;;;19.48;;